Pagina principală
METAR-TAF:

METAR-TAF

Aeroporturi :

Orcas Island Airport

Eastsound, Washington, Statele Unite ale Americii

Latitudine: 48-42-29N, longitudine: 122-54-37W, elevație: 9 m

Observații meteo curente

Raportul a fost făcut în urmă cu 18 de minute, la 22:35 UTC
Vânt calm
Temperatură 13°C
Umiditate 67%
Presiune 1017 hPa
Vizibilitate: 16.1 km
Cer senin

METAR: KORS 162235Z AUTO 00000KT 10SM CLR 13/07 A3003 RMK AO2

Ora: 15:53 (22:53 UTC)


TAF: lipsă

Observații și prognoze meteo pentru peste 4.000 de aeroporturi (rapoarte METAR și TAF).

Stațiile disponibile sunt reprezentate pe hartă prin puncte galbene și roșii.

Țineți indicatorul mouse-ului pe punctul dorit pentru a vedea denumirea stației.

Apoi, faceți clic pentru a vedea observațiile și prognozele meteorologice.

Pentru a schimba harta: Pentru mărire, faceți clic pe butoanele verzi cu cruce neagră; pentru micșorare, pe butonul verde cu o liniuță; pentru hărți învecinate, pe săgețile verzi.


METAR-TAF: